Songa Opal — V7RO5 — position and weather

sailwx.info

Track history (hours):
 
Tides and Currents Weather Stations Pressure Air Temp Water Temp Dewpoint Dewpoint Depression Visibility Wind Speed Wind Dir Waves Ship Positions

Songa Opal

Last reported at 2016-Sep-24 21:34 UTC. Time now 2016-Sep-24 22:35 UTC.
Position N 39°52' W 075°13'.

Length 148 m; draft 6.7 m.

Type: Ship. MMSI: 538003550.

Date/timePositionNaut miles runAvg speedWind from/ knotsBaromVisibWave heightAir tempDewpointWater temp
2016-Sep-24 21:34N 39°52' W 075°13'15 7.7
2016-Sep-24 19:33N 39°44' W 075°30'1212.1
2016-Sep-24 18:33N 39°32' W 075°33'1212.0
2016-Sep-24 17:33N 39°21' W 075°26'1312.8
2016-Sep-24 16:33N 39°11' W 075°16'119 9.2
2016-Sep-24 03:33N 39°07' W 072°42'1713.7
2016-Sep-24 02:20N 39°07' W 072°21'1013.3
2016-Sep-24 01:33N 39°07' W 072°07'26 1.6
2016-Sep-23 09:25N 39°31' W 072°22'3712.8
2016-Sep-23 06:33N 39°51' W 073°02'2512.6
2016-Sep-23 04:33N 40°07' W 073°27'1212.3
2016-Sep-23 03:33N 40°16' W 073°38'1110.9
2016-Sep-23 02:33N 40°26' W 073°42'4 4.2
2016-Sep-23 01:32N 40°30' W 073°40'0 0.0
2016-Sep-23 00:32N 40°30' W 073°40'0 0.1
2016-Sep-22 23:32N 40°30' W 073°39'0 0.0
2016-Sep-22 20:29N 40°30' W 073°39'0 0.0
2016-Sep-22 12:32N 40°30' W 073°40'0 0.0
2016-Sep-22 04:29N 40°30' W 073°40'0 0.0
2016-Sep-22 03:29N 40°30' W 073°40'0 0.0
2016-Sep-21 23:32N 40°30' W 073°40'0 0.1
2016-Sep-21 22:29N 40°30' W 073°39'0 0.0
2016-Sep-21 19:32N 40°30' W 073°39'0 0.0
2016-Sep-21 16:20N 40°30' W 073°40'0 0.0
2016-Sep-21 09:32N 40°30' W 073°39'0 0.0
2016-Sep-21 08:32N 40°30' W 073°39'0 0.0
2016-Sep-21 03:32N 40°30' W 073°40'0 0.0
2016-Sep-21 02:32N 40°30' W 073°40'0 0.0
2016-Sep-20 07:20N 40°30' W 073°39'0 0.0
2016-Sep-20 06:32N 40°30' W 073°39'0 0.0
2016-Sep-20 02:23N 40°30' W 073°40'0 0.0
2016-Sep-19 23:29N 40°30' W 073°40'0 0.0
2016-Sep-19 19:32N 40°30' W 073°39'0 0.0
2016-Sep-19 18:29N 40°30' W 073°40'0 0.0
2016-Sep-19 16:26N 40°30' W 073°40'0 0.0
2016-Sep-19 11:32N 40°30' W 073°39'0 0.0
2016-Sep-19 09:29N 40°30' W 073°39'0 0.1
2016-Sep-19 07:17N 40°30' W 073°39'0 0.0
2016-Sep-19 06:29N 40°30' W 073°39'0 0.0
2016-Sep-18 15:29N 40°30' W 073°39'0 0.0
2016-Sep-18 02:17N 40°30' W 073°39'0 0.0
2016-Sep-18 01:32N 40°30' W 073°39'0 0.0
2016-Sep-18 00:05N 40°30' W 073°39'0 0.0
2016-Sep-17 22:32N 40°30' W 073°39'0 0.0
2016-Sep-17 21:32N 40°30' W 073°39'0 0.0
2016-Sep-17 20:29N 40°30' W 073°39'0 0.0
2016-Sep-17 18:53N 40°30' W 073°39'0 0.0
2016-Sep-17 13:30N 40°30' W 073°39'0 0.0
2016-Sep-17 12:32N 40°30' W 073°39'0 0.0
2016-Sep-17 10:32N 40°30' W 073°40'0 0.0
2016-Sep-17 09:32N 40°30' W 073°40'0 0.0
2016-Sep-17 08:29N 40°30' W 073°40'0 0.0
2016-Sep-17 07:32N 40°30' W 073°40'0 0.1
2016-Sep-17 05:29N 40°30' W 073°39'0 0.0
2016-Sep-17 04:32N 40°30' W 073°39'0 0.0
2016-Sep-15 11:11N 40°30' W 073°40'0 0.0
2016-Sep-15 01:29N 40°30' W 073°39'  
Track history (hours):
 
Tides and Currents Weather Stations Pressure Air Temp Water Temp Dewpoint Dewpoint Depression Visibility Wind Speed Wind Dir Waves Ship Positions

Songa Opal

Last reported at 2016-Sep-24 21:34 UTC. Time now 2016-Sep-24 22:35 UTC.
Position N 39°52' W 075°13'.

Length 148 m; draft 6.7 m.

Type: Ship. MMSI: 538003550.

Date/timePositionNaut miles runAvg speedWind from/ knotsBaromVisibWave heightAir tempDewpointWater temp
2016-Sep-24 21:34N 39°52' W 075°13'15 7.7
2016-Sep-24 19:33N 39°44' W 075°30'1212.1
2016-Sep-24 18:33N 39°32' W 075°33'1212.0
2016-Sep-24 17:33N 39°21' W 075°26'1312.8
2016-Sep-24 16:33N 39°11' W 075°16'119 9.2
2016-Sep-24 03:33N 39°07' W 072°42'1713.7
2016-Sep-24 02:20N 39°07' W 072°21'1013.3
2016-Sep-24 01:33N 39°07' W 072°07'26 1.6
2016-Sep-23 09:25N 39°31' W 072°22'3712.8
2016-Sep-23 06:33N 39°51' W 073°02'2512.6
2016-Sep-23 04:33N 40°07' W 073°27'1212.3
2016-Sep-23 03:33N 40°16' W 073°38'1110.9
2016-Sep-23 02:33N 40°26' W 073°42'4 4.2
2016-Sep-23 01:32N 40°30' W 073°40'0 0.0
2016-Sep-23 00:32N 40°30' W 073°40'0 0.1
2016-Sep-22 23:32N 40°30' W 073°39'0 0.0
2016-Sep-22 20:29N 40°30' W 073°39'0 0.0
2016-Sep-22 12:32N 40°30' W 073°40'0 0.0
2016-Sep-22 04:29N 40°30' W 073°40'0 0.0
2016-Sep-22 03:29N 40°30' W 073°40'0 0.0
2016-Sep-21 23:32N 40°30' W 073°40'0 0.1
2016-Sep-21 22:29N 40°30' W 073°39'0 0.0
2016-Sep-21 19:32N 40°30' W 073°39'0 0.0
2016-Sep-21 16:20N 40°30' W 073°40'0 0.0
2016-Sep-21 09:32N 40°30' W 073°39'0 0.0
2016-Sep-21 08:32N 40°30' W 073°39'0 0.0
2016-Sep-21 03:32N 40°30' W 073°40'0 0.0
2016-Sep-21 02:32N 40°30' W 073°40'0 0.0
2016-Sep-20 07:20N 40°30' W 073°39'0 0.0
2016-Sep-20 06:32N 40°30' W 073°39'0 0.0
2016-Sep-20 02:23N 40°30' W 073°40'0 0.0
2016-Sep-19 23:29N 40°30' W 073°40'0 0.0
2016-Sep-19 19:32N 40°30' W 073°39'0 0.0
2016-Sep-19 18:29N 40°30' W 073°40'0 0.0
2016-Sep-19 16:26N 40°30' W 073°40'0 0.0
2016-Sep-19 11:32N 40°30' W 073°39'0 0.0
2016-Sep-19 09:29N 40°30' W 073°39'0 0.1
2016-Sep-19 07:17N 40°30' W 073°39'0 0.0
2016-Sep-19 06:29N 40°30' W 073°39'0 0.0
2016-Sep-18 15:29N 40°30' W 073°39'0 0.0
2016-Sep-18 02:17N 40°30' W 073°39'0 0.0
2016-Sep-18 01:32N 40°30' W 073°39'0 0.0
2016-Sep-18 00:05N 40°30' W 073°39'0 0.0
2016-Sep-17 22:32N 40°30' W 073°39'0 0.0
2016-Sep-17 21:32N 40°30' W 073°39'0 0.0
2016-Sep-17 20:29N 40°30' W 073°39'0 0.0
2016-Sep-17 18:53N 40°30' W 073°39'0 0.0
2016-Sep-17 13:30N 40°30' W 073°39'0 0.0
2016-Sep-17 12:32N 40°30' W 073°39'0 0.0
2016-Sep-17 10:32N 40°30' W 073°40'0 0.0
2016-Sep-17 09:32N 40°30' W 073°40'0 0.0
2016-Sep-17 08:29N 40°30' W 073°40'0 0.0
2016-Sep-17 07:32N 40°30' W 073°40'0 0.1
2016-Sep-17 05:29N 40°30' W 073°39'0 0.0
2016-Sep-17 04:32N 40°30' W 073°39'0 0.0
2016-Sep-15 11:11N 40°30' W 073°40'0 0.0
2016-Sep-15 01:29N 40°30' W 073°39'  

Dump ship's entire track history